createdAt,value
2019-02-21T00:00:50.729Z,87.52
2019-02-21T00:03:53.934Z,88.29
2019-02-21T00:06:57.155Z,88.07
2019-02-21T00:10:00.513Z,89.57
2019-02-21T00:13:03.522Z,90.11
2019-02-21T00:16:07.648Z,90.11
2019-02-21T00:19:10.836Z,88.38
2019-02-21T00:22:14.056Z,88.91
2019-02-21T00:25:17.308Z,88.74
2019-02-21T00:28:20.445Z,88.83
2019-02-21T00:31:23.632Z,89.34
2019-02-21T00:34:26.819Z,89.45
2019-02-21T00:37:29.999Z,89.52
2019-02-21T00:40:33.190Z,90.71
2019-02-21T00:43:36.301Z,89.28
2019-02-21T00:46:40.291Z,89.37
2019-02-21T00:49:43.497Z,90.26
2019-02-21T00:52:46.704Z,90.62
2019-02-21T00:55:49.903Z,91.87
2019-02-21T00:58:53.124Z,90.17
2019-02-21T01:01:56.425Z,91.40
2019-02-21T01:04:59.590Z,91.22
2019-02-21T01:08:02.783Z,89.90
2019-02-21T01:11:05.980Z,90.50
2019-02-21T01:14:09.155Z,90.39
2019-02-21T01:17:12.355Z,89.32
2019-02-21T01:20:15.640Z,89.45
2019-02-21T01:23:19.439Z,90.71
2019-02-21T01:26:22.556Z,90.31
2019-02-21T01:29:25.744Z,90.02
2019-02-21T01:32:28.944Z,90.45
2019-02-21T01:35:32.119Z,91.11
2019-02-21T01:38:35.235Z,90.76
2019-02-21T01:41:38.425Z,90.58
2019-02-21T01:44:41.607Z,90.54
2019-02-21T01:47:44.830Z,89.70
2019-02-21T01:50:47.987Z,90.68
2019-02-21T01:53:51.099Z,88.90
2019-02-21T01:56:54.295Z,89.20
2019-02-21T01:59:57.474Z,90.53
2019-02-21T02:03:00.670Z,90.03
2019-02-21T02:06:03.864Z,90.24
2019-02-21T02:09:09.491Z,90.27
2019-02-21T02:12:12.624Z,90.54
2019-02-21T02:15:15.791Z,89.49
2019-02-21T02:18:19.010Z,89.66
2019-02-21T02:21:22.186Z,90.13
2019-02-21T02:24:25.284Z,91.17
2019-02-21T02:27:28.484Z,90.29
2019-02-21T02:30:31.696Z,90.67
2019-02-21T02:33:34.987Z,91.26
2019-02-21T02:36:38.181Z,90.43
2019-02-21T02:39:41.510Z,91.57
2019-02-21T02:42:44.680Z,91.85
2019-02-21T02:45:47.953Z,91.63
2019-02-21T02:48:51.140Z,91.37
2019-02-21T02:51:54.342Z,91.49
2019-02-21T02:54:57.527Z,90.82
2019-02-21T02:58:00.832Z,91.40
2019-02-21T03:01:04.145Z,91.42
2019-02-21T03:04:07.339Z,92.01
2019-02-21T03:07:10.516Z,91.61
2019-02-21T03:10:14.411Z,91.87
2019-02-21T03:13:17.534Z,91.94
2019-02-21T03:16:20.628Z,91.47
2019-02-21T03:19:24.022Z,90.76
2019-02-21T03:22:27.223Z,90.67
2019-02-21T03:25:30.459Z,90.88
2019-02-21T03:28:33.614Z,91.93
2019-02-21T03:31:53.399Z,91.57
2019-02-21T03:34:39.972Z,90.32
2019-02-21T03:37:43.181Z,90.55
2019-02-21T03:40:46.259Z,90.92
2019-02-21T03:43:49.386Z,90.94
2019-02-21T03:46:52.703Z,89.99
2019-02-21T03:49:55.880Z,90.34
2019-02-21T03:52:59.048Z,91.17
2019-02-21T03:56:02.253Z,90.87
2019-02-21T03:59:05.636Z,91.62
2019-02-21T04:02:08.843Z,91.43
2019-02-21T04:05:12.043Z,91.10
2019-02-21T04:08:15.321Z,91.20
2019-02-21T04:11:18.432Z,90.64
2019-02-21T04:14:22.672Z,91.29
2019-02-21T04:17:25.932Z,90.81
2019-02-21T04:20:29.036Z,91.53
2019-02-21T04:23:32.243Z,90.95
2019-02-21T04:26:35.415Z,90.93
2019-02-21T04:29:38.604Z,90.49
2019-02-21T04:32:41.818Z,90.87
2019-02-21T04:35:45.102Z,91.45
2019-02-21T04:38:48.200Z,91.72
2019-02-21T04:41:51.401Z,91.28
2019-02-21T04:44:54.591Z,91.32
2019-02-21T04:47:57.759Z,90.81
2019-02-21T04:51:00.987Z,91.24
2019-02-21T04:54:04.167Z,91.83
2019-02-21T04:57:07.371Z,91.80
2019-02-21T05:00:11.540Z,91.50
2019-02-21T05:03:14.673Z,91.98
2019-02-21T05:06:17.853Z,91.54
2019-02-21T05:09:21.087Z,91.32
2019-02-21T05:12:24.191Z,91.87
2019-02-21T05:15:27.423Z,91.56
2019-02-21T05:18:30.519Z,91.68
2019-02-21T05:21:33.622Z,91.54
2019-02-21T05:24:36.825Z,90.94
2019-02-21T05:27:44.101Z,91.00
2019-02-21T05:30:47.327Z,90.71
2019-02-21T05:33:57.542Z,90.46
2019-02-21T05:37:04.811Z,90.62
2019-02-21T05:40:13.354Z,90.86
2019-02-21T05:43:22.727Z,90.53
2019-02-21T05:46:31.965Z,90.80
2019-02-21T05:49:42.304Z,90.82
2019-02-21T05:52:49.566Z,91.39
2019-02-21T05:56:02.239Z,91.11
2019-02-21T05:59:12.419Z,91.44
2019-02-21T06:02:20.981Z,90.59
2019-02-21T06:05:29.242Z,91.44
2019-02-21T06:08:37.869Z,91.62
2019-02-21T06:12:51.231Z,91.25
2019-02-21T06:16:01.422Z,91.94
2019-02-21T06:21:16.223Z,91.49
2019-02-21T06:25:22.435Z,91.61
2019-02-21T06:28:30.621Z,92.16
2019-02-21T06:31:33.818Z,92.28
2019-02-21T06:34:36.975Z,92.20
2019-02-21T06:37:40.188Z,92.00
2019-02-21T06:40:43.391Z,92.69
2019-02-21T06:43:46.675Z,92.59
2019-02-21T06:46:49.885Z,92.21
2019-02-21T06:49:53.155Z,92.73
2019-02-21T06:52:56.356Z,93.10
2019-02-21T06:55:59.551Z,93.37
2019-02-21T06:59:02.841Z,93.59
2019-02-21T07:02:06.042Z,93.11
2019-02-21T07:05:09.266Z,92.15
2019-02-21T07:08:12.524Z,92.43
2019-02-21T07:11:15.741Z,91.85
2019-02-21T07:14:18.908Z,92.18
2019-02-21T07:17:22.027Z,92.28
2019-02-21T07:20:25.250Z,92.20
2019-02-21T07:23:32.525Z,92.21
2019-02-21T07:26:31.631Z,91.94
2019-02-21T07:29:34.904Z,92.14
2019-02-21T07:32:38.203Z,91.60
2019-02-21T07:35:41.479Z,91.97
2019-02-21T07:38:44.691Z,92.18
2019-02-21T07:41:49.975Z,92.10
2019-02-21T07:44:51.110Z,92.07
2019-02-21T07:47:54.461Z,91.80
2019-02-21T07:50:58.275Z,91.60
2019-02-21T07:54:01.580Z,91.44
2019-02-21T07:57:04.801Z,91.24
2019-02-21T08:00:09.103Z,91.27
2019-02-21T08:03:12.397Z,91.24
2019-02-21T08:06:15.588Z,91.77
2019-02-21T08:09:19.026Z,91.37
2019-02-21T08:12:23.261Z,91.35
2019-02-21T08:15:27.542Z,90.84
2019-02-21T08:18:28.383Z,90.04
2019-02-21T08:21:31.574Z,89.87
2019-02-21T08:24:34.789Z,89.24
2019-02-21T08:27:37.936Z,89.15
2019-02-21T08:30:41.139Z,89.12
2019-02-21T08:33:58.056Z,88.48
2019-02-21T08:36:52.543Z,88.52
2019-02-21T08:39:55.768Z,88.34
2019-02-21T08:42:58.859Z,87.06
2019-02-21T08:46:02.019Z,87.43
2019-02-21T08:49:05.225Z,87.60
2019-02-21T08:52:08.306Z,86.83
2019-02-21T08:55:11.496Z,86.70
2019-02-21T08:58:14.687Z,86.62
2019-02-21T09:01:17.795Z,86.72
2019-02-21T09:04:27.368Z,86.83
2019-02-21T09:07:24.186Z,85.48
2019-02-21T09:10:27.835Z,85.94
2019-02-21T09:13:30.574Z,85.88
2019-02-21T09:16:33.665Z,85.72
2019-02-21T09:19:36.987Z,85.02
2019-02-21T09:22:40.060Z,85.10
2019-02-21T09:25:43.247Z,84.74
2019-02-21T09:28:46.442Z,84.20
2019-02-21T09:31:49.642Z,83.83
2019-02-21T09:34:52.933Z,83.84
2019-02-21T09:37:56.027Z,81.80
2019-02-21T09:40:59.405Z,81.65
2019-02-21T09:44:02.617Z,81.18
2019-02-21T09:47:05.916Z,80.24
2019-02-21T09:50:09.221Z,80.41
2019-02-21T09:53:12.407Z,79.46
2019-02-21T09:56:15.596Z,79.86
2019-02-21T09:59:18.703Z,80.04
2019-02-21T10:02:23.215Z,79.36
2019-02-21T10:05:26.124Z,79.98
2019-02-21T10:08:29.372Z,79.08
2019-02-21T10:11:32.593Z,78.48
2019-02-21T10:14:35.889Z,78.12
2019-02-21T10:17:39.100Z,77.33
2019-02-21T10:20:42.399Z,76.81
2019-02-21T10:23:45.572Z,77.41
2019-02-21T10:26:48.691Z,77.63
2019-02-21T10:29:51.882Z,76.87
2019-02-21T10:32:55.072Z,77.36
2019-02-21T10:36:00.426Z,76.29
2019-02-21T10:39:01.455Z,75.54
2019-02-21T10:42:04.678Z,74.66
2019-02-21T10:45:10.517Z,73.88
2019-02-21T10:48:13.836Z,73.82
2019-02-21T10:51:17.031Z,73.07
2019-02-21T10:54:20.179Z,72.88
2019-02-21T10:57:23.395Z,73.11
2019-02-21T11:00:27.160Z,72.71
2019-02-21T11:03:30.381Z,73.69
2019-02-21T11:06:33.583Z,73.77
2019-02-21T11:09:36.885Z,73.39
2019-02-21T11:12:40.088Z,74.41
2019-02-21T11:15:43.372Z,74.16
2019-02-21T11:18:46.556Z,74.89
2019-02-21T11:21:49.765Z,74.60
2019-02-21T11:24:52.932Z,75.76
2019-02-21T11:27:56.044Z,74.16
2019-02-21T11:30:59.397Z,73.95
2019-02-21T11:34:02.550Z,73.41
2019-02-21T11:37:05.732Z,73.33
2019-02-21T11:40:09.977Z,71.08
2019-02-21T11:43:13.148Z,68.64
2019-02-21T11:46:16.353Z,67.20
2019-02-21T11:49:19.535Z,67.98
2019-02-21T11:52:22.811Z,67.81
2019-02-21T11:55:26.029Z,67.00
2019-02-21T11:58:29.316Z,68.85
2019-02-21T12:01:32.500Z,67.78
2019-02-21T12:04:35.750Z,68.06
2019-02-21T12:07:39.633Z,68.00
2019-02-21T12:10:43.080Z,68.21
2019-02-21T12:13:46.219Z,67.60
2019-02-21T12:16:49.470Z,68.34
2019-02-21T12:19:52.597Z,67.27
2019-02-21T12:22:55.784Z,67.59
2019-02-21T12:25:59.014Z,67.48
2019-02-21T12:29:02.211Z,67.93
2019-02-21T12:32:05.425Z,67.34
2019-02-21T12:35:08.600Z,67.04
2019-02-21T12:38:11.789Z,66.54
2019-02-21T12:41:15.008Z,66.50
2019-02-21T12:44:18.284Z,66.04
2019-02-21T12:47:21.459Z,66.02
2019-02-21T12:50:24.666Z,65.54
2019-02-21T12:53:28.297Z,65.11
2019-02-21T12:56:31.059Z,65.17
2019-02-21T12:59:34.264Z,64.30
2019-02-21T13:02:38.855Z,62.54
2019-02-21T13:05:44.552Z,62.03
2019-02-21T13:08:45.280Z,62.02
2019-02-21T13:11:48.568Z,62.51
2019-02-21T13:14:51.688Z,61.82
2019-02-21T13:17:54.943Z,62.23
2019-02-21T13:20:58.175Z,62.72
2019-02-21T13:24:01.338Z,62.38
2019-02-21T13:27:04.444Z,62.86
2019-02-21T13:30:10.195Z,62.29
2019-02-21T13:33:14.297Z,62.54
2019-02-21T13:36:17.521Z,62.68
2019-02-21T13:39:20.641Z,62.00
2019-02-21T13:42:23.866Z,62.04
2019-02-21T13:45:27.069Z,59.92
2019-02-21T13:48:30.203Z,57.04
2019-02-21T13:51:33.463Z,56.05
2019-02-21T13:54:36.653Z,57.20
2019-02-21T13:57:39.871Z,57.61
2019-02-21T14:00:43.043Z,57.68
2019-02-21T14:03:46.277Z,57.94
2019-02-21T14:06:49.366Z,59.14
2019-02-21T14:09:52.526Z,59.90
2019-02-21T14:12:55.607Z,59.99
2019-02-21T14:15:58.776Z,60.31
2019-02-21T14:19:01.909Z,60.56
2019-02-21T14:22:05.102Z,60.64
2019-02-21T14:25:08.629Z,61.02
2019-02-21T14:28:11.804Z,60.89
2019-02-21T14:31:14.988Z,61.16
2019-02-21T14:34:18.091Z,61.18
2019-02-21T14:37:21.314Z,60.56
2019-02-21T14:40:24.487Z,59.86
2019-02-21T14:43:27.753Z,60.55
2019-02-21T14:46:30.873Z,61.11
2019-02-21T14:49:34.081Z,60.26
2019-02-21T14:52:37.259Z,59.00
2019-02-21T14:55:40.380Z,59.10
2019-02-21T14:58:43.541Z,58.03
2019-02-21T15:01:46.745Z,57.65
2019-02-21T15:04:50.129Z,58.40
2019-02-21T15:07:53.346Z,58.49
2019-02-21T15:10:56.517Z,57.57
2019-02-21T15:13:59.607Z,58.29
2019-02-21T15:17:03.858Z,58.76
2019-02-21T15:20:08.167Z,58.52
2019-02-21T15:23:11.370Z,58.85
2019-02-21T15:26:14.921Z,58.57
2019-02-21T15:29:18.775Z,58.09
2019-02-21T15:32:22.528Z,58.81
2019-02-21T15:35:25.681Z,59.64
2019-02-21T15:38:28.875Z,60.00
2019-02-21T15:41:31.994Z,59.26
2019-02-21T15:44:35.135Z,60.23
2019-02-21T15:47:38.228Z,60.04
2019-02-21T15:50:41.448Z,60.80
2019-02-21T15:53:44.735Z,61.37
2019-02-21T15:56:47.924Z,62.34
2019-02-21T15:59:51.120Z,62.86
2019-02-21T16:02:54.312Z,63.12
2019-02-21T16:05:57.612Z,63.82
2019-02-21T16:09:00.710Z,64.05
2019-02-21T16:12:05.455Z,64.05
2019-02-21T16:15:08.219Z,64.06
2019-02-21T16:18:13.795Z,65.03
2019-02-21T16:21:14.608Z,65.39
2019-02-21T16:24:17.707Z,65.33
2019-02-21T16:27:20.895Z,65.84
2019-02-21T16:30:24.356Z,65.93
2019-02-21T16:33:27.555Z,66.59
2019-02-21T16:36:30.852Z,67.37
2019-02-21T16:39:34.012Z,68.72
2019-02-21T16:42:39.172Z,68.68
2019-02-21T16:45:46.386Z,68.75
2019-02-21T16:48:45.611Z,69.70
2019-02-21T16:51:48.784Z,70.82
2019-02-21T16:54:53.229Z,70.67
2019-02-21T16:57:56.466Z,70.97
2019-02-21T17:00:59.713Z,71.25
2019-02-21T17:04:02.931Z,70.90
2019-02-21T17:07:13.500Z,72.38
2019-02-21T17:10:09.566Z,72.42
2019-02-21T17:13:12.670Z,72.47
2019-02-21T17:16:15.887Z,72.69
2019-02-21T17:19:19.082Z,72.50
2019-02-21T17:22:22.314Z,72.78
2019-02-21T17:25:26.727Z,71.91
2019-02-21T17:28:30.024Z,71.90
2019-02-21T17:31:33.251Z,72.02
2019-02-21T17:34:36.479Z,71.23
2019-02-21T17:37:39.611Z,71.39
2019-02-21T17:40:42.803Z,71.69
2019-02-21T17:43:47.872Z,72.15
2019-02-21T17:46:49.218Z,73.17
2019-02-21T17:49:52.392Z,74.68
2019-02-21T17:52:55.592Z,74.84
2019-02-21T17:55:58.871Z,76.86
2019-02-21T17:59:02.088Z,77.21
2019-02-21T18:02:05.266Z,79.51
2019-02-21T18:05:09.087Z,80.30
2019-02-21T18:08:12.259Z,81.09
2019-02-21T18:11:15.470Z,83.78
2019-02-21T18:14:18.609Z,82.72
2019-02-21T18:17:21.770Z,83.38
2019-02-21T18:20:24.943Z,83.42
2019-02-21T18:23:28.058Z,84.28
2019-02-21T18:26:32.043Z,84.86
2019-02-21T18:29:34.556Z,85.68
2019-02-21T18:32:37.773Z,85.27
2019-02-21T18:35:40.985Z,84.74
2019-02-21T18:38:44.206Z,84.57
2019-02-21T18:41:47.514Z,83.68
2019-02-21T18:44:50.716Z,81.56
2019-02-21T18:47:53.936Z,81.00
2019-02-21T18:50:57.085Z,81.21
2019-02-21T18:54:00.285Z,79.67
2019-02-21T18:57:03.479Z,79.58
2019-02-21T19:00:08.415Z,79.92
2019-02-21T19:03:11.599Z,79.39
2019-02-21T19:06:14.834Z,80.18
2019-02-21T19:09:17.980Z,80.33
2019-02-21T19:12:21.089Z,81.64
2019-02-21T19:15:24.337Z,81.63
2019-02-21T19:18:27.443Z,81.24
2019-02-21T19:21:30.571Z,82.60
2019-02-21T19:24:33.888Z,82.59
2019-02-21T19:27:37.720Z,83.32
2019-02-21T19:30:43.892Z,83.36
2019-02-21T19:33:47.068Z,84.14
2019-02-21T19:36:50.164Z,83.86
2019-02-21T19:39:53.386Z,84.08
2019-02-21T19:42:56.515Z,84.64
2019-02-21T19:45:59.746Z,84.24
2019-02-21T19:49:02.927Z,84.55
2019-02-21T19:52:06.157Z,84.50
2019-02-21T19:55:09.301Z,84.71
2019-02-21T19:58:12.499Z,84.67
2019-02-21T20:01:15.635Z,84.34
2019-02-21T20:04:18.816Z,84.80
2019-02-21T20:07:21.980Z,85.39
2019-02-21T20:10:25.167Z,86.19
2019-02-21T20:13:28.372Z,85.95
2019-02-21T20:16:31.565Z,85.87
2019-02-21T20:19:34.787Z,85.53
2019-02-21T20:22:37.964Z,84.80
2019-02-21T20:25:41.153Z,84.73
2019-02-21T20:28:44.307Z,85.14
2019-02-21T20:31:47.604Z,86.02
2019-02-21T20:34:50.816Z,85.58
2019-02-21T20:37:53.916Z,85.44
2019-02-21T20:40:57.116Z,86.03
2019-02-21T20:44:01.320Z,85.98
2019-02-21T20:47:04.443Z,85.62
2019-02-21T20:50:07.682Z,85.59
2019-02-21T20:53:10.949Z,85.85
2019-02-21T20:56:14.203Z,85.96
2019-02-21T20:59:17.522Z,85.81
2019-02-21T21:02:20.613Z,86.11
2019-02-21T21:05:23.830Z,86.16
2019-02-21T21:08:27.126Z,86.42
2019-02-21T21:11:30.275Z,86.35
2019-02-21T21:14:33.496Z,86.33
2019-02-21T21:17:36.873Z,86.23
2019-02-21T21:20:40.103Z,85.79
2019-02-21T21:23:43.346Z,86.24
2019-02-21T21:26:46.511Z,86.63
2019-02-21T21:29:49.647Z,87.13
2019-02-21T21:32:52.792Z,87.29
2019-02-21T21:35:55.939Z,86.72
2019-02-21T21:38:59.087Z,87.48
2019-02-21T21:42:02.339Z,87.66
2019-02-21T21:45:07.495Z,87.86
2019-02-21T21:48:11.103Z,87.99
2019-02-21T21:51:14.783Z,87.38
2019-02-21T21:54:18.184Z,87.83
2019-02-21T21:57:21.474Z,88.25
2019-02-21T22:00:24.697Z,89.24
2019-02-21T22:03:27.944Z,89.55
2019-02-21T22:06:31.058Z,89.13
2019-02-21T22:09:34.422Z,88.82
2019-02-21T22:12:37.680Z,88.00
2019-02-21T22:15:41.675Z,88.11
2019-02-21T22:18:44.936Z,88.34
2019-02-21T22:21:48.083Z,88.68
2019-02-21T22:24:52.063Z,89.68
2019-02-21T22:27:55.270Z,89.42
2019-02-21T22:30:58.491Z,89.45
2019-02-21T22:34:01.756Z,88.73
2019-02-21T22:37:05.754Z,88.69
2019-02-21T22:40:10.308Z,88.98
2019-02-21T22:43:13.516Z,89.38
2019-02-21T22:46:16.635Z,90.13
2019-02-21T22:49:19.783Z,90.19
2019-02-21T22:52:23.206Z,89.75
2019-02-21T22:55:26.621Z,89.33
2019-02-21T22:58:29.794Z,89.80
2019-02-21T23:01:37.680Z,89.76
2019-02-21T23:09:27.406Z,89.73
2019-02-21T23:12:23.415Z,89.32
2019-02-21T23:15:26.630Z,90.13
2019-02-21T23:18:29.763Z,90.77
2019-02-21T23:21:32.897Z,90.33
2019-02-21T23:24:37.015Z,90.34
2019-02-21T23:27:40.106Z,90.30
2019-02-21T23:30:43.315Z,90.21
2019-02-21T23:33:49.491Z,90.13
2019-02-21T23:36:52.662Z,89.83
2019-02-21T23:39:55.858Z,89.85
2019-02-21T23:42:58.948Z,89.44
2019-02-21T23:46:02.240Z,88.43
2019-02-21T23:49:05.551Z,88.68
2019-02-21T23:52:08.763Z,88.67
2019-02-21T23:55:11.922Z,88.89
2019-02-21T23:58:15.131Z,88.95
